createdAt,value
2022-10-15T00:00:18.640Z,21.78
2022-10-15T00:04:18.884Z,21.55
2022-10-15T00:08:21.734Z,21.59
2022-10-15T00:12:21.839Z,21.84
2022-10-15T00:16:25.606Z,21.56
2022-10-15T00:20:26.071Z,21.51
2022-10-15T00:24:28.957Z,21.76
2022-10-15T00:28:31.950Z,22.01
2022-10-15T00:32:35.100Z,21.77
2022-10-15T00:36:40.444Z,21.64
2022-10-15T00:40:44.282Z,21.82
2022-10-15T00:44:57.926Z,22.08
2022-10-15T00:49:05.369Z,21.89
2022-10-15T00:53:11.424Z,21.66
2022-10-15T00:57:16.214Z,21.63
2022-10-15T01:01:16.828Z,21.76
2022-10-15T01:05:19.907Z,21.78
2022-10-15T01:09:20.315Z,21.85
2022-10-15T01:13:36.927Z,21.78
2022-10-15T01:17:47.943Z,21.81
2022-10-15T01:21:57.308Z,21.40
2022-10-15T01:26:24.504Z,21.47
2022-10-15T01:30:30.668Z,21.49
2022-10-15T01:34:43.485Z,21.26
2022-10-15T01:39:01.135Z,21.55
2022-10-15T01:43:08.675Z,21.37
2022-10-15T01:47:27.423Z,21.47
2022-10-15T01:51:30.088Z,21.60
2022-10-15T01:55:34.526Z,21.49
2022-10-15T01:59:37.722Z,21.86
2022-10-15T02:03:51.141Z,21.66
2022-10-15T02:08:03.293Z,21.65
2022-10-15T02:12:24.538Z,21.71
2022-10-15T02:16:33.703Z,21.67
2022-10-15T02:20:45.168Z,21.45
2022-10-15T02:24:55.420Z,21.45
2022-10-15T02:29:02.820Z,21.62
2022-10-15T02:33:03.644Z,21.67
2022-10-15T02:37:09.922Z,21.42
2022-10-15T02:41:12.180Z,21.61
2022-10-15T02:45:13.597Z,21.26
2022-10-15T02:49:15.239Z,21.55
2022-10-15T02:53:18.007Z,21.42
2022-10-15T02:57:18.376Z,21.51
2022-10-15T03:01:19.470Z,21.64
2022-10-15T03:05:20.758Z,21.76
2022-10-15T03:09:24.146Z,21.82
2022-10-15T03:13:24.315Z,21.93
2022-10-15T03:17:26.381Z,21.97
2022-10-15T03:21:28.705Z,22.14
2022-10-15T03:25:37.102Z,21.98
2022-10-15T03:29:38.567Z,22.10
2022-10-15T03:33:38.836Z,22.12
2022-10-15T03:37:39.642Z,22.13
2022-10-15T03:46:11.053Z,22.22
2022-10-15T03:50:16.230Z,22.00
2022-10-15T03:54:17.247Z,22.20
2022-10-15T03:58:26.168Z,22.22
2022-10-15T04:02:30.330Z,22.23
2022-10-15T04:06:30.713Z,22.26
2022-10-15T04:10:36.321Z,22.40
2022-10-15T04:14:39.226Z,22.36
2022-10-15T04:18:39.512Z,22.44
2022-10-15T04:22:40.796Z,22.31
2022-10-15T04:26:41.742Z,21.85
2022-10-15T04:30:44.644Z,21.90
2022-10-15T04:34:46.964Z,21.66
2022-10-15T04:38:48.497Z,21.94
2022-10-15T04:42:56.200Z,21.64
2022-10-15T04:47:00.613Z,21.96
2022-10-15T04:51:19.126Z,21.84
2022-10-15T04:55:34.441Z,21.43
2022-10-15T04:59:36.141Z,21.87
2022-10-15T05:04:17.629Z,21.90
2022-10-15T05:08:17.817Z,21.64
2022-10-15T05:12:34.475Z,21.67
2022-10-15T05:16:35.396Z,21.86
2022-10-15T05:20:38.518Z,21.89
2022-10-15T05:24:39.051Z,21.90
2022-10-15T05:28:54.776Z,21.52
2022-10-15T05:32:59.320Z,22.06
2022-10-15T05:37:02.319Z,22.07
2022-10-15T05:41:02.438Z,22.08
2022-10-15T05:45:02.682Z,21.85
2022-10-15T05:49:02.980Z,21.86
2022-10-15T05:53:13.768Z,21.88
2022-10-15T05:57:22.069Z,21.74
2022-10-15T06:01:23.180Z,21.91
2022-10-15T06:05:26.653Z,22.07
2022-10-15T06:09:30.801Z,21.80
2022-10-15T06:13:30.982Z,21.75
2022-10-15T06:17:31.392Z,21.75
2022-10-15T06:21:31.703Z,21.59
2022-10-15T06:25:35.019Z,21.91
2022-10-15T06:29:35.124Z,21.45
2022-10-15T06:33:37.355Z,21.89
2022-10-15T06:37:37.646Z,21.99
2022-10-15T06:41:40.367Z,22.15
2022-10-15T06:45:45.203Z,22.00
2022-10-15T06:49:50.852Z,22.13
2022-10-15T06:53:51.054Z,22.07
2022-10-15T06:57:54.666Z,22.33
2022-10-15T07:01:55.575Z,22.08
2022-10-15T07:05:55.662Z,22.25
2022-10-15T07:09:56.073Z,22.34
2022-10-15T07:13:58.755Z,22.30
2022-10-15T07:18:01.633Z,22.35
2022-10-15T07:22:02.938Z,22.27
2022-10-15T07:26:04.193Z,22.45
2022-10-15T07:30:09.938Z,22.60
2022-10-15T07:34:10.229Z,22.70
2022-10-15T07:38:10.330Z,22.88
2022-10-15T07:46:13.661Z,22.97
2022-10-15T07:50:13.787Z,23.18
2022-10-15T07:54:13.861Z,23.60
2022-10-15T07:58:13.945Z,23.80
2022-10-15T08:02:19.792Z,23.81
2022-10-15T08:06:20.516Z,24.03
2022-10-15T08:10:20.948Z,24.15
2022-10-15T08:14:21.189Z,24.16
2022-10-15T08:18:24.081Z,24.01
2022-10-15T08:22:25.591Z,23.99
2022-10-15T08:26:29.314Z,23.91
2022-10-15T08:30:29.531Z,23.91
2022-10-15T08:34:32.298Z,24.17
2022-10-15T08:38:34.767Z,23.96
2022-10-15T08:42:40.232Z,24.19
2022-10-15T08:46:49.060Z,24.45
2022-10-15T08:50:59.773Z,24.25
2022-10-15T08:55:02.929Z,24.06
2022-10-15T08:59:16.176Z,23.91
2022-10-15T09:03:34.734Z,23.75
2022-10-15T09:07:45.114Z,24.14
2022-10-15T09:11:59.710Z,24.08
2022-10-15T09:16:16.456Z,24.04
2022-10-15T09:20:21.621Z,23.87
2022-10-15T09:24:32.889Z,23.97
2022-10-15T09:28:43.648Z,24.17
2022-10-15T09:32:55.790Z,24.23
2022-10-15T09:37:05.889Z,24.20
2022-10-15T09:41:27.528Z,24.48
2022-10-15T09:45:28.302Z,24.49
2022-10-15T09:49:35.448Z,24.28
2022-10-15T09:53:55.278Z,24.42
2022-10-15T09:58:04.589Z,24.69
2022-10-15T10:02:07.869Z,24.87
2022-10-15T10:06:12.488Z,24.67
2022-10-15T10:10:30.082Z,24.90
2022-10-15T10:14:36.558Z,24.88
2022-10-15T10:18:37.723Z,24.62
2022-10-15T10:22:50.523Z,24.97
2022-10-15T10:26:52.104Z,24.56
2022-10-15T10:31:04.516Z,24.66
2022-10-15T10:35:07.587Z,25.35
2022-10-15T10:39:28.271Z,25.14
2022-10-15T10:43:32.578Z,24.32
2022-10-15T10:47:40.127Z,24.43
2022-10-15T10:51:52.705Z,24.93
2022-10-15T10:55:54.651Z,25.20
2022-10-15T10:59:59.826Z,25.68
2022-10-15T11:04:02.617Z,26.00
2022-10-15T11:08:16.789Z,25.46
2022-10-15T11:12:55.947Z,25.63
2022-10-15T11:17:10.495Z,25.46
2022-10-15T11:21:29.996Z,25.12
2022-10-15T11:25:43.678Z,24.76
2022-10-15T11:29:56.511Z,24.21
2022-10-15T11:34:20.649Z,24.73
2022-10-15T11:38:36.767Z,25.14
2022-10-15T11:42:46.047Z,25.57
2022-10-15T11:46:56.399Z,25.37
2022-10-15T11:51:05.655Z,25.32
2022-10-15T11:55:20.285Z,25.45
2022-10-15T11:59:36.413Z,25.35
2022-10-15T12:03:48.330Z,25.23
2022-10-15T12:07:51.399Z,25.16
2022-10-15T12:12:08.242Z,25.34
2022-10-15T12:16:27.802Z,24.75
2022-10-15T12:20:29.980Z,25.18
2022-10-15T12:24:58.236Z,25.90
2022-10-15T12:29:05.341Z,26.08
2022-10-15T12:33:07.725Z,27.19
2022-10-15T12:37:18.464Z,27.93
2022-10-15T12:41:18.687Z,28.78
2022-10-15T12:45:34.639Z,29.42
2022-10-15T12:50:03.855Z,28.58
2022-10-15T12:54:04.246Z,28.83
2022-10-15T12:58:08.443Z,29.09
2022-10-15T13:02:38.867Z,29.02
2022-10-15T13:06:41.554Z,29.26
2022-10-15T13:10:50.615Z,28.59
2022-10-15T13:14:58.048Z,27.25
2022-10-15T13:19:00.822Z,26.81
2022-10-15T13:23:30.116Z,26.66
2022-10-15T13:27:34.736Z,26.77
2022-10-15T13:31:39.652Z,26.82
2022-10-15T13:35:43.114Z,26.74
2022-10-15T13:39:44.366Z,26.80
2022-10-15T13:43:58.881Z,27.03
2022-10-15T13:47:59.388Z,26.87
2022-10-15T13:52:02.106Z,27.11
2022-10-15T13:56:06.197Z,26.91
2022-10-15T14:00:08.118Z,27.04
2022-10-15T14:04:19.902Z,27.51
2022-10-15T14:08:27.378Z,27.39
2022-10-15T14:12:27.554Z,27.35
2022-10-15T14:16:32.366Z,26.55
2022-10-15T14:20:32.537Z,26.50
2022-10-15T14:24:39.298Z,26.72
2022-10-15T14:28:42.548Z,26.32
2022-10-15T14:32:51.714Z,26.62
2022-10-15T14:36:51.834Z,26.49
2022-10-15T14:41:07.729Z,26.47
2022-10-15T14:45:16.847Z,27.32
2022-10-15T14:49:27.454Z,27.52
2022-10-15T14:53:31.662Z,27.17
2022-10-15T14:57:39.617Z,28.14
2022-10-15T15:01:40.064Z,27.84
2022-10-15T15:05:49.966Z,27.66
2022-10-15T15:09:54.212Z,28.24
2022-10-15T15:13:57.514Z,29.53
2022-10-15T15:17:57.651Z,30.71
2022-10-15T15:21:58.318Z,29.49
2022-10-15T15:25:58.920Z,28.27
2022-10-15T15:30:02.015Z,27.47
2022-10-15T15:34:02.253Z,27.13
2022-10-15T15:38:02.361Z,26.55
2022-10-15T15:42:02.470Z,26.23
2022-10-15T15:46:05.321Z,26.15
2022-10-15T15:50:05.497Z,25.98
2022-10-15T15:54:07.315Z,26.37
2022-10-15T15:58:07.646Z,26.10
2022-10-15T16:02:10.589Z,25.72
2022-10-15T16:06:12.281Z,25.55
2022-10-15T16:10:13.971Z,25.24
2022-10-15T16:14:14.688Z,25.27
2022-10-15T16:18:17.364Z,25.15
2022-10-15T16:22:17.770Z,25.11
2022-10-15T16:26:18.102Z,25.02
2022-10-15T16:30:19.216Z,24.98
2022-10-15T16:34:22.208Z,24.97
2022-10-15T16:38:22.847Z,24.79
2022-10-15T16:42:22.987Z,24.81
2022-10-15T16:46:23.683Z,24.78
2022-10-15T16:50:26.513Z,24.86
2022-10-15T16:54:26.728Z,24.76
2022-10-15T16:58:26.894Z,24.75
2022-10-15T17:02:27.500Z,24.74
2022-10-15T17:06:34.026Z,24.72
2022-10-15T17:10:34.199Z,24.26
2022-10-15T17:14:34.430Z,24.47
2022-10-15T17:18:34.632Z,24.38
2022-10-15T17:22:37.856Z,23.95
2022-10-15T17:26:40.755Z,24.21
2022-10-15T17:30:41.474Z,24.10
2022-10-15T17:34:41.837Z,23.88
2022-10-15T17:38:45.146Z,23.73
2022-10-15T17:42:45.480Z,24.26
2022-10-15T17:46:45.934Z,24.28
2022-10-15T17:50:46.143Z,24.25
2022-10-15T17:54:48.861Z,24.40
2022-10-15T17:58:49.837Z,24.52
2022-10-15T18:02:52.628Z,24.25
2022-10-15T18:06:52.995Z,24.27
2022-10-15T18:11:01.708Z,24.10
2022-10-15T18:15:02.639Z,24.20
2022-10-15T18:19:02.853Z,24.28
2022-10-15T18:23:03.022Z,24.14
2022-10-15T18:27:06.564Z,24.05
2022-10-15T18:31:09.678Z,23.82
2022-10-15T18:35:11.094Z,23.80
2022-10-15T18:39:12.822Z,23.90
2022-10-15T18:43:18.784Z,23.81
2022-10-15T18:47:19.760Z,24.02
2022-10-15T18:51:20.749Z,24.02
2022-10-15T18:55:21.866Z,24.19
2022-10-15T18:59:24.659Z,24.38
2022-10-15T19:03:25.493Z,24.17
2022-10-15T19:07:25.958Z,24.14
2022-10-15T19:11:26.552Z,23.62
2022-10-15T19:15:29.657Z,23.10
2022-10-15T19:19:32.106Z,23.31
2022-10-15T19:23:32.703Z,23.27
2022-10-15T19:27:32.863Z,23.19
2022-10-15T19:31:39.980Z,23.23
2022-10-15T19:35:44.526Z,23.43
2022-10-15T19:39:48.363Z,23.36
2022-10-15T19:43:50.125Z,23.31
2022-10-15T19:47:59.873Z,23.34
2022-10-15T19:52:02.878Z,23.40
2022-10-15T19:56:06.044Z,23.54
2022-10-15T20:00:07.900Z,23.48
2022-10-15T20:04:15.196Z,23.30
2022-10-15T20:08:16.297Z,23.39
2022-10-15T20:12:16.617Z,23.33
2022-10-15T20:16:19.539Z,23.39
2022-10-15T20:20:24.951Z,23.30
2022-10-15T20:24:25.283Z,23.32
2022-10-15T20:28:25.517Z,23.26
2022-10-15T20:32:41.418Z,23.16
2022-10-15T20:36:44.507Z,23.34
2022-10-15T20:40:44.749Z,23.39
2022-10-15T20:44:45.305Z,23.34
2022-10-15T20:48:48.856Z,23.18
2022-10-15T20:52:51.851Z,23.26
2022-10-15T20:56:52.833Z,23.10
2022-10-15T21:00:52.913Z,23.34
2022-10-15T21:04:53.525Z,23.16
2022-10-15T21:08:56.313Z,23.25
2022-10-15T21:12:56.430Z,23.24
2022-10-15T21:16:56.530Z,23.43
2022-10-15T21:20:56.871Z,23.39
2022-10-15T21:24:59.592Z,23.46
2022-10-15T21:29:01.982Z,23.24
2022-10-15T21:33:02.185Z,23.42
2022-10-15T21:37:02.322Z,23.29
2022-10-15T21:41:07.557Z,23.21
2022-10-15T21:45:09.092Z,23.08
2022-10-15T21:49:09.395Z,23.33
2022-10-15T21:53:09.669Z,23.47
2022-10-15T21:57:13.925Z,23.37
2022-10-15T22:01:19.297Z,23.29
2022-10-15T22:05:20.051Z,23.36
2022-10-15T22:09:20.390Z,23.19
2022-10-15T22:13:23.082Z,23.35
2022-10-15T22:17:23.190Z,23.53
2022-10-15T22:21:26.461Z,23.34
2022-10-15T22:25:26.509Z,23.35
2022-10-15T22:29:35.201Z,23.26
2022-10-15T22:33:37.418Z,23.28
2022-10-15T22:37:38.986Z,23.49
2022-10-15T22:41:42.791Z,23.32
2022-10-15T22:45:45.698Z,23.26
2022-10-15T22:49:45.802Z,23.19
2022-10-15T22:53:46.382Z,23.08
2022-10-15T22:57:47.563Z,23.01
2022-10-15T23:01:50.617Z,23.10
2022-10-15T23:05:55.273Z,23.13
2022-10-15T23:09:56.510Z,23.07
2022-10-15T23:13:59.804Z,23.28
2022-10-15T23:18:02.754Z,23.32
2022-10-15T23:22:03.537Z,23.40
2022-10-15T23:26:03.595Z,23.22
2022-10-15T23:30:14.500Z,23.46
2022-10-15T23:34:28.914Z,23.35
2022-10-15T23:38:30.358Z,23.41
2022-10-15T23:42:32.062Z,23.55
2022-10-15T23:46:32.608Z,23.52
2022-10-15T23:50:39.731Z,23.41
2022-10-15T23:54:42.453Z,23.33
2022-10-15T23:58:43.868Z,23.27
